Multan Weather



Multan's Current Weather

Temprature 8o mist

mist

Rain: 0 %

Min Temprature8o
Max Temprature8o
Humidity81
Wind Speed4.12 m/h
Sun Rise07:10:27
Sun Set17:38:06
Current Time: 18-Jan-2021 05:02:40
Lat/Lon: 30.1956, 71.4753




Multan's Geo Location



Multan's Weather Forecast

Time Overall Temp Min Temp Max Temp Humidity Wind Speed Rain
18-Jan-2021 (Mon)
08:00:00 scattered clouds 9.040 9.040 10.130 63 2.72 m/h 0 %
11:00:00 few clouds 15.890 15.890 18.070 39 3.59 m/h 0 %
14:00:00 clear sky 21.360 21.360 22.270 24 4.8 m/h 0 %
17:00:00 clear sky 19.990 19.990 20.090 24 4.34 m/h 0 %
20:00:00 clear sky 14.960 14.960 14.960 34 3.65 m/h 0 %
23:00:00 clear sky 13.300 13.300 13.300 38 2.81 m/h 0 %
19-Jan-2021 (Tue)
02:00:00 clear sky 11.650 11.650 11.650 42 1.79 m/h 0 %
05:00:00 clear sky 10.640 10.640 10.640 45 1.52 m/h 0 %
08:00:00 clear sky 11.440 11.440 11.440 43 0.91 m/h 0 %
11:00:00 clear sky 20.090 20.090 20.090 24 0.85 m/h 0 %
14:00:00 clear sky 23.640 23.640 23.640 18 1.39 m/h 0 %
17:00:00 clear sky 21.300 21.300 21.300 20 1.38 m/h 0 %
20:00:00 clear sky 16.390 16.390 16.390 28 2.37 m/h 0 %
23:00:00 clear sky 14.280 14.280 14.280 33 1.5 m/h 0 %
20-Jan-2021 (Wed)
02:00:00 clear sky 12.790 12.790 12.790 36 1.02 m/h 0 %
05:00:00 clear sky 12.040 12.040 12.040 37 0.22 m/h 0 %
08:00:00 clear sky 13.050 13.050 13.050 35 0.8 m/h 0 %
11:00:00 clear sky 21.960 21.960 21.960 20 0.47 m/h 0 %
14:00:00 clear sky 25.260 25.260 25.260 16 1.41 m/h 0 %
17:00:00 clear sky 22.510 22.510 22.510 19 1.18 m/h 0 %
20:00:00 clear sky 17.670 17.670 17.670 26 2.24 m/h 0 %
23:00:00 clear sky 15.340 15.340 15.340 31 1.69 m/h 0 %
21-Jan-2021 (Thu)
02:00:00 clear sky 14.030 14.030 14.030 33 1.39 m/h 0 %
05:00:00 clear sky 13.000 13.000 13.000 35 1.43 m/h 0 %
08:00:00 clear sky 13.750 13.750 13.750 34 1.24 m/h 0 %
11:00:00 clear sky 22.610 22.610 22.610 19 2.36 m/h 0 %
14:00:00 clear sky 26.940 26.940 26.940 15 2.73 m/h 0 %
17:00:00 clear sky 24.580 24.580 24.580 18 1.31 m/h 0 %
20:00:00 clear sky 19.010 19.010 19.010 25 1.91 m/h 0 %
23:00:00 clear sky 17.260 17.260 17.260 28 1.91 m/h 0 %
22-Jan-2021 (Fri)
02:00:00 clear sky 15.120 15.120 15.120 32 1.54 m/h 0 %
05:00:00 clear sky 13.560 13.560 13.560 35 0.77 m/h 0 %
08:00:00 clear sky 14.180 14.180 14.180 34 0.78 m/h 0 %
11:00:00 clear sky 21.790 21.790 21.790 21 2.34 m/h 0 %
14:00:00 clear sky 25.530 25.530 25.530 17 2.89 m/h 0 %
17:00:00 scattered clouds 23.410 23.410 23.410 20 2.4 m/h 0 %
20:00:00 overcast clouds 18.210 18.210 18.210 27 1.62 m/h 0 %
23:00:00 overcast clouds 17.200 17.200 17.200 29 3.17 m/h 0 %
23-Jan-2021 (Sat)
02:00:00 overcast clouds 14.870 14.870 14.870 34 4.68 m/h 0 %
05:00:00 overcast clouds 12.350 12.350 12.350 39 3.99 m/h 0 %

Famous Cities (60)